createdAt,value
2019-04-29T00:02:00.632Z,29.83
2019-04-29T00:04:29.863Z,29.10
2019-04-29T00:06:59.069Z,31.10
2019-04-29T00:09:30.871Z,28.47
2019-04-29T00:11:57.582Z,32.17
2019-04-29T00:14:26.766Z,30.73
2019-04-29T00:17:00.354Z,28.10
2019-04-29T00:19:36.786Z,30.67
2019-04-29T00:22:06.037Z,27.60
2019-04-29T00:24:35.207Z,30.90
2019-04-29T00:27:04.438Z,27.73
2019-04-29T00:29:36.206Z,25.50
2019-04-29T00:32:05.492Z,28.90
2019-04-29T00:34:34.730Z,25.60
2019-04-29T00:37:09.204Z,25.47
2019-04-29T00:39:45.805Z,28.13
2019-04-29T00:42:22.402Z,26.97
2019-04-29T00:44:51.658Z,28.90
2019-04-29T00:47:20.898Z,31.23
2019-04-29T00:49:50.158Z,31.20
2019-04-29T00:52:19.368Z,30.53
2019-04-29T00:54:52.590Z,28.37
2019-04-29T00:57:21.815Z,29.47
2019-04-29T00:59:51.017Z,30.60
2019-04-29T01:02:20.208Z,30.27
2019-04-29T01:04:49.409Z,28.10
2019-04-29T01:07:18.682Z,31.40
2019-04-29T01:09:47.842Z,32.87
2019-04-29T01:12:17.012Z,31.17
2019-04-29T01:14:46.274Z,33.97
2019-04-29T01:17:15.498Z,34.63
2019-04-29T01:19:44.728Z,35.07
2019-04-29T01:22:13.928Z,32.47
2019-04-29T01:24:43.189Z,32.27
2019-04-29T01:27:17.970Z,26.50
2019-04-29T01:29:47.172Z,26.47
2019-04-29T01:32:16.360Z,25.80
2019-04-29T01:34:50.780Z,25.13
2019-04-29T01:37:19.969Z,24.33
2019-04-29T01:40:00.617Z,23.93
2019-04-29T01:42:32.639Z,20.73
2019-04-29T01:45:01.925Z,23.60
2019-04-29T01:47:31.126Z,20.67
2019-04-29T01:50:00.366Z,21.97
2019-04-29T01:52:29.604Z,20.03
2019-04-29T01:54:58.774Z,20.33
2019-04-29T01:57:28.017Z,18.70
2019-04-29T01:59:57.204Z,18.13
2019-04-29T02:02:26.411Z,19.50
2019-04-29T02:04:55.610Z,18.50
2019-04-29T02:07:24.826Z,20.23
2019-04-29T02:10:04.196Z,17.80
2019-04-29T02:12:33.373Z,17.07
2019-04-29T02:15:02.576Z,19.57
2019-04-29T02:17:31.820Z,16.10
2019-04-29T02:20:01.034Z,17.50
2019-04-29T02:22:34.704Z,17.23
2019-04-29T02:25:11.372Z,15.93
2019-04-29T02:27:40.577Z,18.40
2019-04-29T02:30:09.829Z,17.20
2019-04-29T02:32:39.010Z,17.27
2019-04-29T02:35:08.219Z,18.13
2019-04-29T02:37:38.489Z,19.70
2019-04-29T02:40:12.118Z,16.87
2019-04-29T02:42:48.712Z,16.83
2019-04-29T02:45:21.712Z,15.07
2019-04-29T02:47:50.924Z,17.37
2019-04-29T02:50:20.106Z,15.27
2019-04-29T02:52:49.378Z,18.30
2019-04-29T02:55:22.843Z,16.10
2019-04-29T02:57:59.429Z,18.63
2019-04-29T03:01:34.946Z,18.50
2019-04-29T03:04:11.630Z,14.17
2019-04-29T03:06:40.814Z,13.90
2019-04-29T03:09:10.048Z,19.90
2019-04-29T03:11:39.306Z,16.73
2019-04-29T03:14:08.490Z,13.00
2019-04-29T03:16:37.778Z,19.33
2019-04-29T03:19:10.612Z,16.13
2019-04-29T03:21:44.165Z,13.17
2019-04-29T03:24:14.649Z,12.27
2019-04-29T03:26:43.827Z,16.40
2019-04-29T03:29:28.716Z,11.80
2019-04-29T03:31:57.894Z,12.30
2019-04-29T03:34:28.366Z,13.87
2019-04-29T03:36:57.635Z,13.40
2019-04-29T03:39:26.797Z,13.60
2019-04-29T03:41:55.990Z,12.30
2019-04-29T03:44:26.538Z,15.33
2019-04-29T03:46:55.641Z,13.33
2019-04-29T03:49:24.829Z,15.93
2019-04-29T03:51:54.056Z,14.10
2019-04-29T03:54:23.281Z,18.70
2019-04-29T03:56:52.444Z,14.80
2019-04-29T03:59:21.669Z,13.83
2019-04-29T04:01:55.237Z,15.03
2019-04-29T04:04:30.117Z,15.43
2019-04-29T04:07:04.122Z,16.87
2019-04-29T04:09:34.129Z,17.37
2019-04-29T04:12:03.394Z,17.77
2019-04-29T04:14:32.512Z,18.97
2019-04-29T04:17:07.906Z,18.33
2019-04-29T04:19:37.076Z,15.10
2019-04-29T04:22:06.405Z,14.73
2019-04-29T04:24:35.585Z,16.17
2019-04-29T04:27:04.778Z,14.80
2019-04-29T04:29:33.976Z,14.73
2019-04-29T04:32:03.201Z,19.50
2019-04-29T04:34:32.388Z,14.47
2019-04-29T04:37:02.305Z,14.00
2019-04-29T04:39:31.518Z,15.00
2019-04-29T04:42:00.808Z,12.23
2019-04-29T04:44:35.687Z,12.23
2019-04-29T04:47:04.896Z,10.67
2019-04-29T04:49:37.032Z,16.43
2019-04-29T04:52:06.337Z,11.17
2019-04-29T04:54:35.569Z,10.57
2019-04-29T04:57:04.761Z,11.00
2019-04-29T04:59:33.962Z,13.40
2019-04-29T05:02:03.210Z,10.23
2019-04-29T05:04:32.377Z,11.10
2019-04-29T05:07:01.585Z,13.37
2019-04-29T05:09:32.005Z,9.87
2019-04-29T05:12:01.190Z,13.70
2019-04-29T05:14:30.362Z,16.47
2019-04-29T05:17:00.264Z,10.37
2019-04-29T05:19:29.493Z,13.83
2019-04-29T05:21:58.665Z,13.07
2019-04-29T05:24:29.224Z,14.60
2019-04-29T05:26:58.410Z,12.00
2019-04-29T05:29:28.748Z,13.17
2019-04-29T05:31:56.856Z,13.20
2019-04-29T05:34:26.054Z,8.67
2019-04-29T05:37:06.437Z,11.10
2019-04-29T05:39:37.900Z,11.20
2019-04-29T05:42:15.206Z,11.40
2019-04-29T05:44:40.724Z,9.70
2019-04-29T05:47:14.285Z,10.53
2019-04-29T05:49:47.066Z,8.20
2019-04-29T05:52:23.624Z,5.63
2019-04-29T05:54:52.840Z,5.47
2019-04-29T05:57:25.393Z,6.80
2019-04-29T05:59:51.223Z,4.90
2019-04-29T06:02:24.033Z,6.53
2019-04-29T06:04:52.460Z,5.67
2019-04-29T06:07:21.595Z,5.57
2019-04-29T06:09:48.013Z,5.70
2019-04-29T06:12:17.187Z,6.90
2019-04-29T06:14:50.028Z,5.17
2019-04-29T06:17:21.651Z,5.73
2019-04-29T06:19:50.870Z,5.87
2019-04-29T06:22:20.072Z,4.62
2019-04-29T06:24:50.784Z,3.92
2019-04-29T06:27:19.997Z,5.42
2019-04-29T06:29:49.200Z,6.05
2019-04-29T06:32:20.303Z,5.50
2019-04-29T06:34:47.672Z,5.00
2019-04-29T06:37:16.929Z,3.77
2019-04-29T06:39:47.399Z,6.58
2019-04-29T06:42:19.501Z,10.82
2019-04-29T06:44:48.966Z,4.20
2019-04-29T06:47:17.097Z,7.22
2019-04-29T06:49:47.255Z,4.80
2019-04-29T06:52:16.530Z,6.75
2019-04-29T06:54:45.812Z,6.78
2019-04-29T06:57:15.035Z,5.55
2019-04-29T06:59:47.593Z,5.15
2019-04-29T07:02:14.370Z,8.83
2019-04-29T07:04:46.643Z,5.00
2019-04-29T07:07:15.847Z,4.10
2019-04-29T07:09:46.388Z,4.20
2019-04-29T07:12:16.902Z,4.67
2019-04-29T07:14:46.109Z,3.85
2019-04-29T07:17:16.637Z,7.47
2019-04-29T07:19:45.823Z,4.85
2019-04-29T07:22:16.266Z,4.95
2019-04-29T07:24:45.542Z,7.20
2019-04-29T07:27:14.727Z,6.30
2019-04-29T07:29:43.943Z,8.45
2019-04-29T07:32:13.214Z,5.35
2019-04-29T07:34:42.530Z,7.22
2019-04-29T07:37:11.829Z,6.72
2019-04-29T07:39:41.118Z,4.00
2019-04-29T07:42:10.465Z,6.67
2019-04-29T07:44:48.852Z,4.92
2019-04-29T07:47:17.504Z,4.87
2019-04-29T07:49:47.295Z,4.75
2019-04-29T07:52:16.201Z,6.97
2019-04-29T07:54:48.267Z,7.05
2019-04-29T07:57:18.076Z,4.35
2019-04-29T07:59:46.267Z,4.87
2019-04-29T08:02:15.511Z,6.17
2019-04-29T08:04:44.755Z,5.58
2019-04-29T08:07:13.999Z,6.78
2019-04-29T08:09:44.217Z,6.10
2019-04-29T08:12:12.653Z,6.03
2019-04-29T08:14:41.887Z,6.87
2019-04-29T08:17:11.229Z,6.00
2019-04-29T08:19:40.493Z,4.90
2019-04-29T08:22:09.747Z,6.60
2019-04-29T08:24:38.978Z,7.47
2019-04-29T08:27:10.746Z,6.47
2019-04-29T08:29:39.984Z,5.60
2019-04-29T08:32:11.827Z,11.22
2019-04-29T08:34:41.094Z,6.62
2019-04-29T08:37:10.329Z,5.22
2019-04-29T08:39:39.583Z,6.65
2019-04-29T08:42:11.392Z,5.72
2019-04-29T08:45:22.287Z,8.35
2019-04-29T08:47:51.663Z,6.78
2019-04-29T08:50:22.326Z,5.78
2019-04-29T08:52:51.583Z,6.00
2019-04-29T08:55:26.734Z,8.68
2019-04-29T08:57:55.085Z,5.42
2019-04-29T09:00:24.377Z,4.95
2019-04-29T09:02:53.734Z,4.10
2019-04-29T09:05:23.006Z,5.83
2019-04-29T09:07:57.414Z,6.00
2019-04-29T09:10:22.798Z,6.50
2019-04-29T09:12:53.254Z,5.10
2019-04-29T09:15:22.505Z,5.62
2019-04-29T09:17:51.721Z,5.22
2019-04-29T09:20:22.270Z,4.55
2019-04-29T09:22:55.428Z,7.85
2019-04-29T09:26:32.358Z,11.25
2019-04-29T09:29:06.021Z,15.45
2019-04-29T09:31:35.330Z,24.98
2019-04-29T09:34:06.799Z,22.45
2019-04-29T09:36:35.079Z,26.02
2019-04-29T09:39:05.605Z,14.90
2019-04-29T09:41:41.160Z,23.25
2019-04-29T09:44:15.934Z,10.30
2019-04-29T09:46:45.224Z,11.08
2019-04-29T09:49:14.564Z,6.97
2019-04-29T09:51:43.921Z,18.07
2019-04-29T09:54:14.551Z,11.70
2019-04-29T09:56:44.016Z,12.68
2019-04-29T09:59:18.676Z,12.20
2019-04-29T10:01:56.208Z,10.03
2019-04-29T10:04:32.694Z,21.30
2019-04-29T10:07:01.909Z,9.63
2019-04-29T10:09:33.689Z,15.40
2019-04-29T10:12:02.893Z,65.15
2019-04-29T10:14:32.210Z,35.65
2019-04-29T10:17:05.929Z,15.30
2019-04-29T10:19:40.516Z,8.90
2019-04-29T10:22:09.803Z,19.47
2019-04-29T10:24:40.296Z,7.03
2019-04-29T10:27:10.570Z,3.40
2019-04-29T10:29:39.804Z,11.03
2019-04-29T10:32:09.229Z,9.53
2019-04-29T10:34:38.489Z,5.70
2019-04-29T10:37:10.124Z,11.67
2019-04-29T10:40:44.542Z,5.60
2019-04-29T10:43:20.412Z,5.47
2019-04-29T10:46:28.520Z,8.40
2019-04-29T10:49:05.314Z,8.43
2019-04-29T10:51:33.579Z,7.00
2019-04-29T10:54:02.902Z,7.87
2019-04-29T10:56:35.373Z,10.13
2019-04-29T10:59:04.619Z,7.50
2019-04-29T11:02:44.685Z,6.57
2019-04-29T11:05:30.779Z,5.33
2019-04-29T11:08:06.362Z,8.33
2019-04-29T11:10:35.588Z,7.70
2019-04-29T11:13:05.977Z,9.03
2019-04-29T11:15:36.020Z,6.63
2019-04-29T11:18:05.238Z,11.63
2019-04-29T11:20:34.803Z,5.07
2019-04-29T11:23:16.416Z,8.63
2019-04-29T11:26:16.728Z,18.63
2019-04-29T11:28:46.874Z,6.97
2019-04-29T11:31:19.067Z,8.57
2019-04-29T11:33:48.763Z,7.70
2019-04-29T11:36:19.552Z,7.27
2019-04-29T11:38:48.782Z,6.80
2019-04-29T11:41:19.918Z,5.47
2019-04-29T11:43:51.102Z,6.40
2019-04-29T11:46:21.051Z,5.90
2019-04-29T11:48:48.067Z,7.23
2019-04-29T11:51:22.665Z,6.73
2019-04-29T11:53:51.979Z,7.20
2019-04-29T11:56:21.169Z,5.80
2019-04-29T11:58:56.566Z,9.17
2019-04-29T12:01:38.608Z,8.50
2019-04-29T12:04:04.217Z,8.77
2019-04-29T12:06:35.869Z,10.33
2019-04-29T12:09:06.781Z,9.80
2019-04-29T12:11:36.417Z,5.57
2019-04-29T12:14:10.088Z,5.03
2019-04-29T12:16:44.136Z,5.23
2019-04-29T12:19:17.102Z,9.20
2019-04-29T12:21:46.218Z,7.03
2019-04-29T12:24:15.418Z,6.20
2019-04-29T12:26:44.721Z,5.10
2019-04-29T12:29:18.130Z,12.70
2019-04-29T12:31:51.187Z,5.33
2019-04-29T12:34:26.876Z,6.73
2019-04-29T12:36:56.681Z,8.20
2019-04-29T12:39:42.678Z,6.73
2019-04-29T12:42:08.060Z,6.20
2019-04-29T12:44:44.526Z,15.53
2019-04-29T12:47:26.363Z,7.33
2019-04-29T12:49:46.445Z,12.30
2019-04-29T12:52:13.971Z,5.13
2019-04-29T12:54:46.193Z,5.43
2019-04-29T12:57:18.925Z,5.40
2019-04-29T12:59:44.247Z,8.37
2019-04-29T13:02:19.934Z,7.20
2019-04-29T13:04:52.129Z,8.87
2019-04-29T13:07:26.684Z,7.03
2019-04-29T13:10:01.885Z,7.07
2019-04-29T13:12:30.356Z,3.33
2019-04-29T13:16:00.657Z,5.10
2019-04-29T13:18:43.640Z,8.27
2019-04-29T13:21:12.856Z,5.13
2019-04-29T13:23:55.526Z,5.60
2019-04-29T13:26:11.213Z,13.70
2019-04-29T13:28:59.165Z,6.97
2019-04-29T13:31:11.997Z,9.30
2019-04-29T13:33:46.068Z,10.70
2019-04-29T13:36:14.192Z,7.10
2019-04-29T13:38:44.548Z,5.97
2019-04-29T13:41:14.377Z,8.43
2019-04-29T13:43:42.970Z,6.17
2019-04-29T13:46:16.518Z,10.07
2019-04-29T13:48:56.007Z,6.37
2019-04-29T13:51:35.279Z,4.70
2019-04-29T13:53:55.432Z,3.90
2019-04-29T13:56:35.059Z,11.17
2019-04-29T13:58:53.212Z,6.63
2019-04-29T14:01:32.901Z,7.37
2019-04-29T14:04:00.382Z,10.00
2019-04-29T14:06:29.618Z,5.47
2019-04-29T14:08:59.972Z,5.83
2019-04-29T14:11:28.057Z,11.70
2019-04-29T14:13:57.222Z,5.63
2019-04-29T14:16:26.436Z,8.17
2019-04-29T14:18:55.661Z,4.87
2019-04-29T14:21:25.782Z,5.87
2019-04-29T14:23:54.060Z,3.60
2019-04-29T14:26:24.530Z,8.07
2019-04-29T14:28:53.801Z,5.60
2019-04-29T14:31:24.556Z,4.97
2019-04-29T14:34:00.289Z,6.37
2019-04-29T14:36:26.402Z,12.60
2019-04-29T14:38:54.938Z,5.33
2019-04-29T14:41:26.844Z,10.47
2019-04-29T14:44:04.206Z,5.20
2019-04-29T14:46:39.207Z,5.20
2019-04-29T14:49:11.849Z,6.20
2019-04-29T14:51:42.432Z,5.73
2019-04-29T14:54:12.438Z,5.63
2019-04-29T14:56:41.694Z,5.87
2019-04-29T14:59:12.158Z,10.03
2019-04-29T15:01:45.806Z,4.40
2019-04-29T15:04:18.824Z,5.47
2019-04-29T15:06:46.165Z,9.27
2019-04-29T15:09:18.165Z,5.97
2019-04-29T15:11:52.627Z,7.03
2019-04-29T15:14:27.740Z,10.03
2019-04-29T15:17:02.103Z,8.10
2019-04-29T15:19:38.180Z,8.00
2019-04-29T15:22:09.559Z,6.20
2019-04-29T15:24:38.709Z,7.73
2019-04-29T15:27:07.895Z,7.50
2019-04-29T15:29:37.133Z,6.23
2019-04-29T15:32:06.357Z,6.30
2019-04-29T15:34:35.608Z,5.03
2019-04-29T15:37:04.773Z,7.70
2019-04-29T15:39:35.252Z,6.37
2019-04-29T15:42:06.987Z,6.63
2019-04-29T15:44:35.006Z,7.93
2019-04-29T15:47:04.213Z,9.83
2019-04-29T15:49:34.697Z,9.77
2019-04-29T15:52:03.979Z,10.17
2019-04-29T15:54:33.157Z,5.80
2019-04-29T15:57:03.722Z,8.83
2019-04-29T15:59:47.516Z,6.50
2019-04-29T16:02:04.434Z,4.47
2019-04-29T16:04:34.105Z,5.57
2019-04-29T16:07:07.871Z,6.27
2019-04-29T16:09:51.852Z,7.03
2019-04-29T16:12:16.125Z,6.33
2019-04-29T16:14:49.213Z,6.63
2019-04-29T16:17:20.531Z,10.87
2019-04-29T16:19:48.331Z,4.50
2019-04-29T16:22:19.746Z,11.23
2019-04-29T16:24:46.897Z,8.93
2019-04-29T16:27:15.937Z,6.73
2019-04-29T16:29:46.133Z,6.60
2019-04-29T16:32:18.666Z,6.07
2019-04-29T16:34:47.870Z,7.10
2019-04-29T16:37:19.429Z,8.10
2019-04-29T16:39:46.280Z,6.67
2019-04-29T16:42:20.781Z,8.17
2019-04-29T16:44:50.068Z,7.00
2019-04-29T16:47:20.342Z,8.30
2019-04-29T16:49:49.553Z,6.43
2019-04-29T16:52:20.081Z,8.47
2019-04-29T16:54:49.291Z,4.77
2019-04-29T16:57:18.525Z,11.03
2019-04-29T16:59:48.151Z,6.73
2019-04-29T17:02:19.716Z,6.77
2019-04-29T17:04:48.733Z,5.13
2019-04-29T17:07:17.904Z,7.23
2019-04-29T17:10:09.858Z,6.90
2019-04-29T17:12:42.280Z,8.90
2019-04-29T17:15:24.319Z,7.00
2019-04-29T17:17:41.929Z,5.57
2019-04-29T17:20:11.168Z,9.47
2019-04-29T17:22:43.247Z,9.13
2019-04-29T17:25:09.569Z,10.80
2019-04-29T17:27:45.375Z,9.43
2019-04-29T17:30:19.001Z,9.90
2019-04-29T17:33:29.681Z,8.73
2019-04-29T17:35:58.975Z,6.93
2019-04-29T17:38:28.181Z,9.37
2019-04-29T17:40:57.357Z,6.60
2019-04-29T17:43:38.392Z,11.13
2019-04-29T17:46:10.482Z,9.10
2019-04-29T17:48:48.610Z,8.80
2019-04-29T17:51:14.459Z,8.00
2019-04-29T17:53:46.765Z,8.73
2019-04-29T17:57:08.651Z,8.40
2019-04-29T17:59:32.284Z,8.60
2019-04-29T18:02:21.641Z,8.70
2019-04-29T18:04:56.017Z,10.47
2019-04-29T18:07:25.204Z,7.50
2019-04-29T18:09:59.694Z,10.47
2019-04-29T18:12:28.898Z,9.20
2019-04-29T18:14:58.093Z,9.27
2019-04-29T18:17:31.149Z,9.17
2019-04-29T18:20:38.634Z,10.63
2019-04-29T18:23:19.189Z,9.23
2019-04-29T18:25:54.770Z,9.43
2019-04-29T18:28:22.481Z,8.70
2019-04-29T18:30:54.482Z,12.77
2019-04-29T18:33:23.086Z,11.27
2019-04-29T18:36:02.108Z,12.03
2019-04-29T18:38:21.833Z,9.90
2019-04-29T18:40:51.030Z,8.30
2019-04-29T18:43:23.193Z,12.70
2019-04-29T18:45:56.173Z,11.70
2019-04-29T18:48:21.662Z,12.67
2019-04-29T18:50:49.164Z,11.03
2019-04-29T18:53:18.391Z,11.87
2019-04-29T18:55:48.954Z,7.30
2019-04-29T18:58:18.131Z,11.03
2019-04-29T19:00:52.430Z,12.90
2019-04-29T19:03:25.251Z,13.03
2019-04-29T19:05:55.598Z,12.33
2019-04-29T19:08:26.773Z,10.17
2019-04-29T19:10:54.135Z,12.07
2019-04-29T19:13:25.891Z,12.87
2019-04-29T19:15:58.780Z,8.73
2019-04-29T19:18:22.825Z,12.20
2019-04-29T19:20:54.306Z,15.77
2019-04-29T19:23:29.491Z,8.23
2019-04-29T19:25:54.821Z,9.63
2019-04-29T19:28:30.564Z,11.53
2019-04-29T19:30:57.837Z,8.50
2019-04-29T19:33:25.301Z,9.60
2019-04-29T19:35:55.498Z,11.10
2019-04-29T19:38:25.419Z,10.97
2019-04-29T19:40:55.753Z,8.97
2019-04-29T19:43:25.878Z,10.37
2019-04-29T19:45:57.478Z,10.13
2019-04-29T19:48:27.033Z,8.13
2019-04-29T19:51:14.043Z,12.67
2019-04-29T19:53:25.151Z,11.40
2019-04-29T19:56:04.328Z,7.43
2019-04-29T19:58:29.895Z,9.73
2019-04-29T20:01:09.902Z,9.47
2019-04-29T20:03:35.878Z,8.57
2019-04-29T20:06:08.288Z,5.27
2019-04-29T20:08:48.277Z,8.93
2019-04-29T20:11:11.012Z,8.90
2019-04-29T20:13:31.605Z,7.07
2019-04-29T20:16:10.943Z,6.07
2019-04-29T20:18:40.621Z,6.20
2019-04-29T20:21:21.443Z,10.13
2019-04-29T20:23:42.971Z,6.57
2019-04-29T20:26:15.550Z,8.87
2019-04-29T20:28:42.813Z,9.07
2019-04-29T20:31:20.851Z,9.37
2019-04-29T20:33:46.994Z,10.37
2019-04-29T20:36:13.053Z,10.53
2019-04-29T20:38:45.680Z,10.73
2019-04-29T20:41:18.114Z,9.03
2019-04-29T20:43:46.385Z,10.27
2019-04-29T20:46:15.990Z,12.60
2019-04-29T20:48:45.550Z,9.17
2019-04-29T20:51:16.492Z,7.93
2019-04-29T20:53:47.631Z,9.80
2019-04-29T20:56:23.706Z,8.40
2019-04-29T20:58:46.924Z,7.93
2019-04-29T21:01:19.738Z,8.50
2019-04-29T21:03:53.776Z,8.77
2019-04-29T21:06:19.485Z,11.63
2019-04-29T21:08:51.180Z,12.00
2019-04-29T21:11:22.359Z,9.63
2019-04-29T21:13:58.261Z,12.33
2019-04-29T21:16:30.991Z,12.90
2019-04-29T21:19:08.507Z,11.13
2019-04-29T21:21:36.921Z,10.20
2019-04-29T21:24:08.442Z,8.60
2019-04-29T21:26:39.662Z,12.23
2019-04-29T21:29:03.180Z,12.03
2019-04-29T21:31:32.439Z,14.07
2019-04-29T21:34:01.648Z,11.70
2019-04-29T21:36:52.218Z,12.60
2019-04-29T21:39:26.911Z,12.40
2019-04-29T21:42:05.725Z,13.20
2019-04-29T21:44:33.730Z,11.93
2019-04-29T21:47:04.737Z,8.77
2019-04-29T21:49:43.276Z,10.73
2019-04-29T21:52:01.616Z,9.17
2019-04-29T21:54:30.794Z,13.23
2019-04-29T21:57:00.006Z,12.97
2019-04-29T21:59:29.201Z,9.13
2019-04-29T22:01:59.249Z,11.73
2019-04-29T22:04:27.676Z,8.50
2019-04-29T22:06:59.780Z,8.30
2019-04-29T22:09:35.988Z,10.60
2019-04-29T22:11:57.814Z,10.87
2019-04-29T22:14:29.520Z,12.30
2019-04-29T22:16:58.794Z,8.57
2019-04-29T22:19:28.236Z,13.33
2019-04-29T22:22:01.384Z,12.63
2019-04-29T22:24:27.680Z,9.47
2019-04-29T22:27:03.680Z,10.80
2019-04-29T22:29:26.902Z,11.60
2019-04-29T22:31:57.261Z,12.70
2019-04-29T22:34:26.501Z,12.93
2019-04-29T22:36:58.261Z,15.20
2019-04-29T22:39:29.985Z,11.27
2019-04-29T22:42:00.942Z,11.10
2019-04-29T22:44:30.139Z,8.97
2019-04-29T22:46:59.384Z,10.23
2019-04-29T22:49:29.284Z,8.97
2019-04-29T22:51:57.738Z,9.43
2019-04-29T22:54:26.972Z,10.53
2019-04-29T22:56:56.798Z,8.67
2019-04-29T22:59:27.454Z,6.33
2019-04-29T23:01:55.999Z,8.30
2019-04-29T23:04:25.943Z,7.50
2019-04-29T23:06:55.142Z,9.50
2019-04-29T23:09:24.352Z,11.27
2019-04-29T23:11:55.595Z,8.37
2019-04-29T23:14:22.749Z,8.27
2019-04-29T23:16:53.473Z,12.77
2019-04-29T23:19:22.708Z,7.43
2019-04-29T23:21:59.429Z,10.43
2019-04-29T23:24:34.683Z,9.83
2019-04-29T23:27:06.081Z,8.33
2019-04-29T23:29:37.200Z,7.87
2019-04-29T23:32:04.802Z,7.80
2019-04-29T23:34:31.556Z,8.27
2019-04-29T23:37:00.825Z,7.97
2019-04-29T23:39:30.006Z,9.43
2019-04-29T23:42:04.701Z,11.03
2019-04-29T23:44:29.678Z,7.07
2019-04-29T23:46:58.861Z,10.50
2019-04-29T23:49:28.057Z,6.77
2019-04-29T23:51:57.378Z,8.63
2019-04-29T23:54:26.672Z,8.40
2019-04-29T23:57:01.501Z,10.17
2019-04-29T23:59:30.757Z,6.60
